createdAt,value
2022-09-12T00:01:47.101Z,99835.13
2022-09-12T00:04:48.686Z,99837.59
2022-09-12T00:07:50.281Z,99842.16
2022-09-12T00:10:51.948Z,99836.22
2022-09-12T00:14:01.353Z,99836.97
2022-09-12T00:17:03.303Z,99840.72
2022-09-12T00:20:09.392Z,99836.72
2022-09-12T00:23:11.793Z,99835.06
2022-09-12T00:26:13.906Z,99832.59
2022-09-12T00:29:16.543Z,99829.88
2022-09-12T00:32:17.908Z,99831.78
2022-09-12T00:35:19.306Z,99822.75
2022-09-12T00:38:21.362Z,99821.56
2022-09-12T00:41:31.781Z,99820.53
2022-09-12T00:44:35.953Z,99813.22
2022-09-12T00:47:37.861Z,99810.00
2022-09-12T00:50:39.316Z,99810.59
2022-09-12T00:53:44.325Z,99808.00
2022-09-12T00:56:48.211Z,99808.47
2022-09-12T00:59:58.832Z,99802.75
2022-09-12T01:03:04.547Z,99802.22
2022-09-12T01:06:14.095Z,99803.78
2022-09-12T01:09:22.249Z,99803.47
2022-09-12T01:12:24.357Z,99804.84
2022-09-12T01:15:25.827Z,99811.66
2022-09-12T01:18:50.263Z,99807.47
2022-09-12T01:22:16.621Z,99807.53
2022-09-12T01:25:56.128Z,99797.38
2022-09-12T01:29:31.366Z,99795.13
2022-09-12T01:32:55.042Z,99788.91
2022-09-12T01:36:34.651Z,99790.22
2022-09-12T01:39:51.411Z,99791.38
2022-09-12T01:43:03.179Z,99788.00
2022-09-12T01:46:19.294Z,99785.91
2022-09-12T01:49:25.832Z,99783.63
2022-09-12T01:52:36.103Z,99778.97
2022-09-12T01:55:46.394Z,99775.47
2022-09-12T01:58:53.980Z,99765.94
2022-09-12T02:02:12.937Z,99772.56
2022-09-12T02:05:34.503Z,99774.94
2022-09-12T02:08:43.526Z,99763.75
2022-09-12T02:11:47.225Z,99769.47
2022-09-12T02:14:54.652Z,99765.44
2022-09-12T02:18:01.316Z,99762.34
2022-09-12T02:21:06.101Z,99761.16
2022-09-12T02:24:10.236Z,99766.78
2022-09-12T02:27:16.606Z,99759.59
2022-09-12T02:30:19.422Z,99762.69
2022-09-12T02:33:28.862Z,99764.03
2022-09-12T02:37:00.557Z,99759.09
2022-09-12T02:40:02.367Z,99755.34
2022-09-12T02:43:06.277Z,99758.94
2022-09-12T02:46:13.729Z,99756.66
2022-09-12T02:49:17.238Z,99759.06
2022-09-12T02:52:19.658Z,99761.63
2022-09-12T02:55:21.478Z,99753.44
2022-09-12T02:58:27.011Z,99759.50
2022-09-12T03:01:43.601Z,99761.81
2022-09-12T03:05:02.626Z,99756.75
2022-09-12T03:08:32.544Z,99758.16
2022-09-12T03:12:02.463Z,99755.47
2022-09-12T03:15:34.372Z,99765.38
2022-09-12T03:18:44.881Z,99757.72
2022-09-12T03:21:58.089Z,99758.38
2022-09-12T03:25:20.758Z,99756.50
2022-09-12T03:28:24.178Z,99758.13
2022-09-12T03:31:26.004Z,99760.34
2022-09-12T03:34:28.309Z,99763.09
2022-09-12T03:37:29.723Z,99763.19
2022-09-12T03:40:31.122Z,99760.56
2022-09-12T03:43:32.569Z,99761.88
2022-09-12T03:46:34.477Z,99761.56
2022-09-12T03:49:35.892Z,99772.13
2022-09-12T03:52:37.412Z,99764.59
2022-09-12T03:55:39.016Z,99769.03
2022-09-12T03:58:40.566Z,99762.88
2022-09-12T04:01:42.373Z,99760.84
2022-09-12T04:04:44.147Z,99764.44
2022-09-12T04:07:45.565Z,99765.78
2022-09-12T04:10:47.056Z,99763.81
2022-09-12T04:13:49.063Z,99762.38
2022-09-12T04:16:50.603Z,99756.75
2022-09-12T04:19:52.018Z,99750.03
2022-09-12T04:22:53.412Z,99748.16
2022-09-12T04:26:00.404Z,99740.22
2022-09-12T04:29:01.806Z,99742.03
2022-09-12T04:32:03.783Z,99739.56
2022-09-12T04:35:05.404Z,99736.09
2022-09-12T04:38:07.083Z,99735.31
2022-09-12T04:41:13.599Z,99740.28
2022-09-12T04:44:15.488Z,99738.03
2022-09-12T04:47:16.938Z,99742.97
2022-09-12T04:50:19.091Z,99747.16
2022-09-12T04:53:20.490Z,99750.97
2022-09-12T04:56:22.724Z,99751.78
2022-09-12T04:59:24.080Z,99751.00
2022-09-12T05:02:25.719Z,99757.63
2022-09-12T05:05:27.412Z,99759.94
2022-09-12T05:08:28.992Z,99753.28
2022-09-12T05:12:02.583Z,99766.41
2022-09-12T05:14:57.793Z,99766.56
2022-09-12T05:17:59.211Z,99767.22
2022-09-12T05:21:02.110Z,99763.78
2022-09-12T05:24:06.088Z,99766.16
2022-09-12T05:27:07.476Z,99764.72
2022-09-12T05:30:09.671Z,99760.94
2022-09-12T05:33:11.640Z,99771.41
2022-09-12T05:36:19.224Z,99764.50
2022-09-12T05:39:20.948Z,99770.44
2022-09-12T05:42:23.408Z,99774.38
2022-09-12T05:45:25.134Z,99775.94
2022-09-12T05:48:26.561Z,99774.00
2022-09-12T05:51:31.841Z,99771.41
2022-09-12T05:54:34.343Z,99768.69
2022-09-12T05:57:36.359Z,99768.25
2022-09-12T06:00:37.763Z,99765.59
2022-09-12T06:03:44.659Z,99764.59
2022-09-12T06:06:46.715Z,99761.91
2022-09-12T06:09:48.113Z,99764.91
2022-09-12T06:12:49.529Z,99762.59
2022-09-12T06:15:51.279Z,99763.53
2022-09-12T06:18:55.412Z,99756.91
2022-09-12T06:21:57.083Z,99764.53
2022-09-12T06:24:58.503Z,99759.88
2022-09-12T06:28:00.004Z,99754.13
2022-09-12T06:31:12.447Z,99759.75
2022-09-12T06:34:15.600Z,99762.94
2022-09-12T06:37:17.016Z,99763.63
2022-09-12T06:40:18.453Z,99753.47
2022-09-12T06:43:19.921Z,99758.66
2022-09-12T06:46:23.429Z,99757.78
2022-09-12T06:49:24.973Z,99752.41
2022-09-12T06:52:29.519Z,99764.34
2022-09-12T06:55:30.969Z,99755.78
2022-09-12T06:58:33.313Z,99762.16
2022-09-12T07:01:34.817Z,99767.53
2022-09-12T07:04:37.105Z,99781.50
2022-09-12T07:07:38.426Z,99773.91
2022-09-12T07:10:39.946Z,99766.94
2022-09-12T07:13:43.769Z,99774.53
2022-09-12T07:16:45.395Z,99768.69
2022-09-12T07:19:47.473Z,99772.50
2022-09-12T07:22:50.350Z,99776.88
2022-09-12T07:25:59.221Z,99782.34
2022-09-12T07:29:19.034Z,99774.63
2022-09-12T07:32:25.980Z,99773.13
2022-09-12T07:35:28.518Z,99779.50
2022-09-12T07:38:30.437Z,99783.44
2022-09-12T07:41:35.464Z,99773.81
2022-09-12T07:44:36.933Z,99776.34
2022-09-12T07:47:38.353Z,99780.19
2022-09-12T07:50:44.996Z,99776.97
2022-09-12T07:53:47.516Z,99774.59
2022-09-12T07:56:49.073Z,99775.94
2022-09-12T07:59:52.810Z,99769.38
2022-09-12T08:02:55.109Z,99778.94
2022-09-12T08:06:03.802Z,99772.97
2022-09-12T08:09:06.045Z,99772.53
2022-09-12T08:12:07.732Z,99775.84
2022-09-12T08:15:09.574Z,99774.63
2022-09-12T08:18:11.511Z,99767.97
2022-09-12T08:21:18.336Z,99770.72
2022-09-12T08:24:19.736Z,99761.22
2022-09-12T08:27:21.140Z,99769.16
2022-09-12T08:30:22.555Z,99773.66
2022-09-12T08:33:27.281Z,99773.88
2022-09-12T08:36:29.558Z,99767.50
2022-09-12T08:39:32.633Z,99766.81
2022-09-12T08:42:53.466Z,99766.50
2022-09-12T08:46:04.140Z,99762.25
2022-09-12T08:49:11.736Z,99760.91
2022-09-12T08:52:22.369Z,99760.13
2022-09-12T08:55:32.888Z,99757.88
2022-09-12T08:58:40.665Z,99761.50
2022-09-12T09:01:45.275Z,99756.28
2022-09-12T09:05:03.351Z,99760.88
2022-09-12T09:08:26.754Z,99760.38
2022-09-12T09:11:45.906Z,99756.28
2022-09-12T09:14:56.349Z,99749.28
2022-09-12T09:18:04.179Z,99749.56
2022-09-12T09:21:31.747Z,99749.94
2022-09-12T09:24:38.545Z,99745.75
2022-09-12T09:27:51.973Z,99747.31
2022-09-12T09:30:53.748Z,99743.25
2022-09-12T09:33:55.517Z,99744.53
2022-09-12T09:37:20.010Z,99737.06
2022-09-12T09:40:41.555Z,99739.28
2022-09-12T09:43:42.992Z,99736.41
2022-09-12T09:46:44.557Z,99731.88
2022-09-12T09:49:46.396Z,99736.25
2022-09-12T09:52:50.631Z,99726.63
2022-09-12T09:55:55.630Z,99733.94
2022-09-12T09:58:57.107Z,99729.00
2022-09-12T10:02:03.667Z,99725.63
2022-09-12T10:05:05.619Z,99721.75
2022-09-12T10:08:07.816Z,99720.66
2022-09-12T10:11:12.476Z,99717.22
2022-09-12T10:14:36.889Z,99714.31
2022-09-12T10:17:49.390Z,99719.19
2022-09-12T10:20:50.853Z,99710.19
2022-09-12T10:24:00.219Z,99712.50
2022-09-12T10:27:19.178Z,99708.38
2022-09-12T10:30:24.806Z,99708.16
2022-09-12T10:33:27.077Z,99700.47
2022-09-12T10:36:39.605Z,99699.25
2022-09-12T10:39:41.847Z,99692.31
2022-09-12T10:42:52.823Z,99693.06
2022-09-12T10:45:59.306Z,99674.34
2022-09-12T10:49:24.109Z,99674.84
2022-09-12T10:52:25.913Z,99677.97
2022-09-12T10:55:31.543Z,99675.84
2022-09-12T10:58:47.284Z,99678.09
2022-09-12T11:01:59.736Z,99669.88
2022-09-12T11:05:27.309Z,99662.19
2022-09-12T11:08:49.247Z,99665.38
2022-09-12T11:12:22.131Z,99662.22
2022-09-12T11:15:36.435Z,99656.59
2022-09-12T11:19:15.406Z,99662.53
2022-09-12T11:22:37.747Z,99653.75
2022-09-12T11:25:51.507Z,99651.22
2022-09-12T11:29:34.244Z,99643.25
2022-09-12T11:32:53.844Z,99639.34
2022-09-12T11:35:57.519Z,99641.00
2022-09-12T11:39:27.580Z,99629.19
2022-09-12T11:42:34.250Z,99629.94
2022-09-12T11:45:42.786Z,99623.56
2022-09-12T11:48:53.096Z,99614.13
2022-09-12T11:52:06.922Z,99618.13
2022-09-12T11:55:19.497Z,99610.03
2022-09-12T11:58:25.597Z,99607.69
2022-09-12T12:01:42.907Z,99611.09
2022-09-12T12:05:03.373Z,99613.53
2022-09-12T12:08:06.241Z,99604.94
2022-09-12T12:11:08.829Z,99611.22
2022-09-12T12:14:19.565Z,99597.00
2022-09-12T12:17:24.109Z,99594.81
2022-09-12T12:20:27.205Z,99597.34
2022-09-12T12:23:34.910Z,99592.50
2022-09-12T12:26:39.800Z,99594.13
2022-09-12T12:29:44.309Z,99592.66
2022-09-12T12:32:46.004Z,99594.06
2022-09-12T12:35:59.481Z,99594.22
2022-09-12T12:39:33.031Z,99592.41
2022-09-12T12:42:37.021Z,99589.09
2022-09-12T12:45:38.362Z,99589.59
2022-09-12T12:49:09.647Z,99591.16
2022-09-12T12:52:18.509Z,99578.97
2022-09-12T12:55:27.521Z,99572.72
2022-09-12T12:58:35.009Z,99577.47
2022-09-12T13:01:40.951Z,99573.88
2022-09-12T13:04:44.716Z,99563.75
2022-09-12T13:07:48.141Z,99549.63
2022-09-12T13:10:53.683Z,99547.13
2022-09-12T13:14:00.561Z,99547.75
2022-09-12T13:17:06.313Z,99542.06
2022-09-12T13:20:30.142Z,99547.09
2022-09-12T13:23:32.833Z,99545.34
2022-09-12T13:26:43.265Z,99545.78
2022-09-12T13:29:44.715Z,99540.41
2022-09-12T13:32:46.147Z,99535.56
2022-09-12T13:36:32.162Z,99532.91
2022-09-12T13:39:46.551Z,99525.09
2022-09-12T13:42:51.594Z,99522.00
2022-09-12T13:45:53.363Z,99522.69
2022-09-12T13:48:54.923Z,99519.06
2022-09-12T13:52:02.014Z,99515.53
2022-09-12T13:55:14.677Z,99509.63
2022-09-12T13:58:26.942Z,99499.28
2022-09-12T14:01:46.365Z,99491.50
2022-09-12T14:05:09.247Z,99493.34
2022-09-12T14:08:15.281Z,99487.50
2022-09-12T14:11:28.454Z,99482.06
2022-09-12T14:14:36.503Z,99481.69
2022-09-12T14:17:39.593Z,99475.81
2022-09-12T14:20:41.917Z,99476.81
2022-09-12T14:23:47.784Z,99475.47
2022-09-12T14:26:50.886Z,99477.63
2022-09-12T14:30:07.446Z,99467.53
2022-09-12T14:33:11.700Z,99475.56
2022-09-12T14:36:19.706Z,99472.34
2022-09-12T14:39:37.647Z,99476.47
2022-09-12T14:42:42.453Z,99471.75
2022-09-12T14:45:44.010Z,99470.09
2022-09-12T14:48:58.757Z,99465.78
2022-09-12T14:52:03.603Z,99461.66
2022-09-12T14:55:29.799Z,99458.38
2022-09-12T14:58:31.430Z,99455.69
2022-09-12T15:01:32.926Z,99447.53
2022-09-12T15:04:38.238Z,99446.53
2022-09-12T15:07:42.498Z,99446.69
2022-09-12T15:10:43.959Z,99440.31
2022-09-12T15:13:45.412Z,99441.59
2022-09-12T15:16:46.899Z,99433.56
2022-09-12T15:19:48.328Z,99442.25
2022-09-12T15:22:50.355Z,99436.97
2022-09-12T15:25:52.310Z,99438.50
2022-09-12T15:28:53.949Z,99435.81
2022-09-12T15:31:55.288Z,99432.03
2022-09-12T15:34:56.797Z,99428.97
2022-09-12T15:37:58.405Z,99430.06
2022-09-12T15:41:00.133Z,99425.03
2022-09-12T15:44:04.006Z,99430.06
2022-09-12T15:47:05.732Z,99429.91
2022-09-12T15:50:07.225Z,99420.78
2022-09-12T15:53:16.629Z,99416.97
2022-09-12T15:56:21.132Z,99423.91
2022-09-12T15:59:22.561Z,99416.75
2022-09-12T16:02:24.088Z,99414.75
2022-09-12T16:05:26.480Z,99412.69
2022-09-12T16:08:31.322Z,99413.97
2022-09-12T16:11:33.035Z,99420.78
2022-09-12T16:14:34.554Z,99410.78
2022-09-12T16:17:35.981Z,99407.41
2022-09-12T16:20:40.159Z,99403.75
2022-09-12T16:23:45.504Z,99397.84
2022-09-12T16:26:47.207Z,99397.59
2022-09-12T16:29:48.568Z,99409.16
2022-09-12T16:32:52.070Z,99398.28
2022-09-12T16:35:55.042Z,99404.13
2022-09-12T16:38:56.514Z,99405.00
2022-09-12T16:41:58.127Z,99398.94
2022-09-12T16:44:59.573Z,99400.81
2022-09-12T16:48:01.106Z,99406.72
2022-09-12T16:51:05.305Z,99410.59
2022-09-12T16:54:06.706Z,99411.78
2022-09-12T16:57:08.196Z,99411.16
2022-09-12T17:00:10.233Z,99408.81
2022-09-12T17:03:11.719Z,99408.81
2022-09-12T17:06:16.446Z,99398.31
2022-09-12T17:09:18.629Z,99401.19
2022-09-12T17:12:20.145Z,99400.41
2022-09-12T17:15:21.614Z,99404.59
2022-09-12T17:18:23.552Z,99405.22
2022-09-12T17:21:25.002Z,99407.66
2022-09-12T17:24:26.730Z,99401.75
2022-09-12T17:27:28.172Z,99399.38
2022-09-12T17:30:29.596Z,99401.03
2022-09-12T17:33:32.046Z,99402.00
2022-09-12T17:36:33.964Z,99402.47
2022-09-12T17:39:35.460Z,99407.72
2022-09-12T17:42:36.901Z,99404.94
2022-09-12T17:45:38.893Z,99402.50
2022-09-12T17:48:40.312Z,99414.34
2022-09-12T17:51:43.486Z,99408.22
2022-09-12T17:54:45.223Z,99404.31
2022-09-12T17:57:46.777Z,99406.78
2022-09-12T18:01:06.825Z,99402.72
2022-09-12T18:04:08.398Z,99406.75
2022-09-12T18:07:10.576Z,99413.44
2022-09-12T18:10:12.162Z,99422.22
2022-09-12T18:13:13.985Z,99415.06
2022-09-12T18:16:15.511Z,99420.06
2022-09-12T18:19:17.280Z,99419.19
2022-09-12T18:22:18.777Z,99424.88
2022-09-12T18:25:20.624Z,99420.94
2022-09-12T18:28:22.153Z,99419.53
2022-09-12T18:31:28.010Z,99430.03
2022-09-12T18:34:29.596Z,99427.16
2022-09-12T18:37:31.054Z,99435.72
2022-09-12T18:40:32.462Z,99440.00
2022-09-12T18:43:34.065Z,99439.69
2022-09-12T18:46:35.766Z,99437.50
2022-09-12T18:49:37.189Z,99441.03
2022-09-12T18:52:38.606Z,99434.16
2022-09-12T18:55:40.168Z,99428.19
2022-09-12T18:58:43.331Z,99429.03
2022-09-12T19:01:45.356Z,99426.66
2022-09-12T19:04:46.997Z,99432.66
2022-09-12T19:07:48.717Z,99430.63
2022-09-12T19:10:56.450Z,99425.03
2022-09-12T19:13:58.044Z,99429.75
2022-09-12T19:16:59.663Z,99424.72
2022-09-12T19:20:01.344Z,99422.47
2022-09-12T19:23:02.939Z,99416.06
2022-09-12T19:26:08.484Z,99418.22
2022-09-12T19:29:11.585Z,99428.56
2022-09-12T19:32:13.116Z,99427.88
2022-09-12T19:35:14.599Z,99418.78
2022-09-12T19:38:16.848Z,99419.66
2022-09-12T19:41:19.055Z,99425.03
2022-09-12T19:44:20.499Z,99430.19
2022-09-12T19:47:22.002Z,99423.28
2022-09-12T19:50:23.660Z,99418.91
2022-09-12T19:53:25.126Z,99425.13
2022-09-12T19:56:27.024Z,99414.28
2022-09-12T19:59:28.491Z,99420.41
2022-09-12T20:02:30.237Z,99415.72
2022-09-12T20:05:33.391Z,99418.63
2022-09-12T20:08:40.759Z,99416.63
2022-09-12T20:11:42.296Z,99418.06
2022-09-12T20:14:43.813Z,99422.75
2022-09-12T20:17:45.341Z,99408.22
2022-09-12T20:20:46.907Z,99417.25
2022-09-12T20:23:48.627Z,99414.41
2022-09-12T20:26:50.178Z,99411.97
2022-09-12T20:29:53.194Z,99422.34
2022-09-12T20:32:55.136Z,99414.16
2022-09-12T20:36:09.240Z,99410.94
2022-09-12T20:39:16.498Z,99402.63
2022-09-12T20:42:17.947Z,99403.50
2022-09-12T20:45:19.340Z,99396.16
2022-09-12T20:48:20.961Z,99390.22
2022-09-12T20:51:24.460Z,99390.72
2022-09-12T20:54:25.866Z,99390.59
2022-09-12T20:57:28.648Z,99384.88
2022-09-12T21:00:32.115Z,99378.50
2022-09-12T21:03:37.474Z,99368.47
2022-09-12T21:06:39.197Z,99368.84
2022-09-12T21:09:40.583Z,99371.47
2022-09-12T21:12:42.063Z,99372.53
2022-09-12T21:15:43.535Z,99377.06
2022-09-12T21:18:46.694Z,99365.16
2022-09-12T21:21:48.258Z,99364.16
2022-09-12T21:24:49.723Z,99362.75
2022-09-12T21:27:51.206Z,99350.72
2022-09-12T21:30:53.030Z,99356.63
2022-09-12T21:33:54.451Z,99350.09
2022-09-12T21:36:56.031Z,99355.28
2022-09-12T21:39:59.000Z,99360.56
2022-09-12T21:43:00.837Z,99356.53
2022-09-12T21:46:03.218Z,99353.09
2022-09-12T21:49:04.725Z,99372.22
2022-09-12T21:52:06.716Z,99370.59
2022-09-12T21:55:09.078Z,99381.19
2022-09-12T21:58:10.638Z,99370.19
2022-09-12T22:01:12.557Z,99365.22
2022-09-12T22:04:14.042Z,99369.28
2022-09-12T22:07:19.070Z,99372.78
2022-09-12T22:10:20.469Z,99376.69
2022-09-12T22:13:21.916Z,99375.81
2022-09-12T22:16:23.587Z,99376.72
2022-09-12T22:19:25.036Z,99378.72
2022-09-12T22:22:45.212Z,99376.31
2022-09-12T22:25:46.997Z,99367.47
2022-09-12T22:28:49.188Z,99373.31
2022-09-12T22:31:50.753Z,99370.63
2022-09-12T22:34:52.184Z,99373.25
2022-09-12T22:37:53.581Z,99369.34
2022-09-12T22:40:55.306Z,99354.91
2022-09-12T22:43:57.637Z,99358.97
2022-09-12T22:46:59.187Z,99369.56
2022-09-12T22:50:00.739Z,99369.66
2022-09-12T22:53:02.127Z,99367.88
2022-09-12T22:56:05.097Z,99365.91
2022-09-12T22:59:06.850Z,99362.91
2022-09-12T23:02:08.451Z,99349.50
2022-09-12T23:05:09.881Z,99354.03
2022-09-12T23:08:11.680Z,99364.25
2022-09-12T23:11:15.447Z,99356.31
2022-09-12T23:14:17.478Z,99365.28
2022-09-12T23:17:18.977Z,99358.59
2022-09-12T23:20:20.365Z,99336.44
2022-09-12T23:23:21.776Z,99347.28
2022-09-12T23:26:24.877Z,99341.19
2022-09-12T23:29:27.007Z,99332.19
2022-09-12T23:32:28.398Z,99332.19
2022-09-12T23:35:29.799Z,99329.75
2022-09-12T23:38:32.581Z,99337.47
2022-09-12T23:41:34.003Z,99337.50
2022-09-12T23:44:35.412Z,99340.94
2022-09-12T23:47:36.917Z,99338.50
2022-09-12T23:50:38.384Z,99328.75
2022-09-12T23:53:39.995Z,99331.19
2022-09-12T23:56:41.425Z,99327.94
2022-09-12T23:59:42.887Z,99325.28
